Tiempo atmosférico en la estación meteorológica de Melilla, Melilla (47 m.)



Fecha
DESCASC
Temp. máxima en grados centígrados (hora)
DESCASC
Temp. mínima en grados centígrados (hora)
DESCASC
Temp. media en grados centígrados
DESCASC
Racha de viento máxima en m/sg (hora)
DESCASC
Velocidad máxima media en intervalos de 10 minutos(hora)
DESCASC
Precipitaciones diarias en mm
DESCASC
Precipitaciones de 00:00 a 06:00 en mm
DESCASC
Precipitaciones de 06:00 a 12:00 en mm
DESCASC
Precipitaciones de 12:00 a 18:00 en mm
DESCASC
Precipitaciones de 18:00 a 24:00 en mm
DESCASC
17-09-2020 -- (--) -- (--) -- 13.89 (19:50) 6.39 (22:00) 2.8 0 0 0 2.8
16-09-2020 -- (--) -- (--) -- 6.67 (14:30) 4.72 (11:30) 0 0 0 0 0
15-09-2020 26.8 (12:00) 22.5 (23:30) 24.6 6.67 (15:30) 5 (15:30) 0 0 0 0 0
14-09-2020 26.3 (13:30) 22.9 (00:00) 24.6 10.28 (20:40) 6.94 (20:40) 0 0 0 0 0
13-09-2020 27 (14:10) 23.2 (00:00) 25.1 7.78 (17:40) 5.28 (16:10) 0 0 0 0 0
12-09-2020 27.5 (14:00) 21.3 (00:00) 24.4 7.78 (16:10) 5.28 (13:40) 0 0 0 0 0
11-09-2020 26.5 (14:40) 20.9 (00:00) 23.7 6.67 (14:20) 4.17 (14:30) 0 0 0 0 0
10-09-2020 26.1 (16:30) 20.8 (00:00) 23.4 6.67 (14:00) 4.17 (13:20) 0 0 0 0 0
09-09-2020 26.5 (16:20) 22.2 (00:00) 24.4 7.22 (13:10) 5.28 (16:20) 0 0 0 0 0
08-09-2020 27.4 (13:10) 22.4 (00:00) 24.9 11.11 (17:00) 7.5 (14:40) 0 0 0 0 0
07-09-2020 27.1 (15:20) 20.1 (07:40) 23.6 6.67 (23:10) 5 (23:20) 0 0 0 0 0
06-09-2020 26.9 (12:50) 22.1 (00:00) 24.5 7.78 (18:20) 4.72 (18:20) 0 0 0 0 0
05-09-2020 27.6 (13:20) 23.1 (00:00) 25.4 8.06 (05:30) 5 (13:20) 0 0 0 0 0
04-09-2020 27.2 (15:10) 23.5 (00:00) 25.4 9.44 (10:50) 6.94 (11:50) 0 0 0 0 0
03-09-2020 27.8 (17:00) 23.3 (00:00) 25.5 14.17 (16:10) 7.78 (14:20) 0 0 0 0 0
02-09-2020 27.5 (15:00) 20.5 (00:00) 24 8.89 (18:50) 5.28 (15:20) 0 0 0 0 0
01-09-2020 27.5 (15:40) 22.9 (00:00) 25.2 8.06 (14:20) 5 (14:50) 0 0 0 0 0
31-08-2020 27.9 (13:20) 23.8 (00:00) 25.8 10.56 (16:20) 7.78 (13:30) 0 0 0 0 0
30-08-2020 28 (14:50) 20.9 (00:00) 24.4 11.39 (00:20) 6.39 (16:20) 0 0 0 0 0
29-08-2020 27.9 (00:00) 24.2 (00:00) 26.1 16.39 (19:30) 10 (19:10) 0 0 0 0 0
28-08-2020 34.6 (12:00) 23.7 (00:00) 29.1 14.17 (18:50) 7.78 (16:40) 0 0 0 0 0
27-08-2020 29.8 (15:40) 22.8 (00:00) 26.3 5.56 (17:50) 3.89 (18:20) 0 0 0 0 0
26-08-2020 29.4 (15:40) 25.1 (00:00) 27.3 6.39 (15:30) 5 (15:40) 0 0 0 0 0
25-08-2020 29.4 (14:20) 24.8 (00:00) 27.1 7.22 (17:00) 4.17 (15:40) 0 0 0 0 0
24-08-2020 29.4 (14:50) 24 (00:00) 26.7 6.94 (15:50) 4.17 (13:30) 0 0 0 0 0
23-08-2020 29.5 (10:00) 25 (00:00) 27.3 6.67 (13:40) 4.17 (13:50) 0 0 0 0 0
22-08-2020 37.1 (16:30) 25.2 (00:00) 31.1 9.17 (14:20) 5.28 (11:30) 0 0 0 0 0
21-08-2020 32 (14:50) 23.9 (00:00) 27.9 7.78 (03:10) 4.44 (15:30) 0 0 0 0 0

Gráficas

Temp. máximas Temp. mínimas Temp. medias Precipitaciones Rachas de viento máximas Velocidades máximas media en intervalos de 10 minutos

Datos horarios

Fecha y hora oficial Temperatura (ºC) Velocidad del viento (km/h) Dirección del viento Racha (km/h) Dirección de racha Precipitación (mm) Presión (hPa) Tendencia (hPa) Humedad (%)
2020-09-19 23:00:00 23.1 16 Oeste 31 Sudoeste 0 1012.9 1.9 67
2020-09-19 22:00:00 23.2 15 Oeste 25 Sudoeste 0 1012.3 1.3 70
2020-09-19 21:00:00 23.9 8 Oeste 19 Oeste 0 1011.7 0.8 64
2020-09-19 20:00:00 24.6 7 Oeste 19 Oeste 0 1011 0.1 58
2020-09-19 19:00:00 24.9 6 Noroeste 20 Noroeste 0 1011 -0.2 67
2020-09-19 18:00:00 26 9 Noroeste 26 Noroeste 0 1010.9 -0.8 64
2020-09-19 17:00:00 25.8 13 Noroeste 23 Noroeste 0 1010.9 -1.3 64
2020-09-19 16:00:00 25.9 13 Norte 23 Norte 0 1011.2 -1.4 65
2020-09-19 15:00:00 25.6 16 Norte 22 Nordeste 0 1011.7 -1.3 66
2020-09-19 14:00:00 25.5 13 Nordeste 22 Nordeste 0 1012.2 -0.6 67
2020-09-19 13:00:00 25.1 12 Este 17 Este 0 1012.6 0.3 68
2020-09-19 12:00:00 24.2 10 Nordeste 15 Nordeste 0 1013 0.8 71
2020-09-19 11:00:00 24.5 6 Sudoeste 12 Sudoeste 0 1012.8 1.1 68
2020-09-19 10:00:00 23.6 3 Oeste 9 Oeste 0 1012.3 0.8 73
2020-09-19 09:00:00 22 3 Oeste 7 Oeste 0 1012.2 -- 83
2020-09-19 08:00:00 20.9 5 Oeste 8 Norte 0 1011.7 -- 88
2020-09-19 07:00:00 21.7 4 Sudoeste 9 Oeste 0 1011.5 -- 85
2020-09-19 06:00:00 21.9 6 Oeste 9 Oeste 0 1011.2 -- 86
2020-09-19 05:00:00 22.2 6 Oeste 12 Oeste 0 1011.1 -- 86
2020-09-19 04:00:00 22.4 6 Oeste 16 Oeste 0 1011.2 -- 85
2020-09-19 03:00:00 22.4 9 Oeste 15 Oeste 0 1011.3 -- 85
2020-09-19 02:00:00 22.8 6 Oeste 17 Oeste 0 1011.4 -- 82
2020-09-19 01:00:00 23.3 5 Oeste 22 Sudoeste 0 1011.3 -- 77
2020-09-19 00:00:00 22.5 16 Oeste 29 Oeste 0 1011.3 -- 88
2020-09-18 23:00:00 23.3 9 Oeste 24 Oeste 0 1011.2 -- 87
2020-09-18 22:00:00 23.6 9 Oeste 21 Oeste 0 1010.5 -- 86
2020-09-18 21:00:00 24.5 6 Noroeste 22 Oeste 0 1009.3 -- 78
2020-09-18 20:00:00 26.1 8 Norte 15 Norte 0 1008.1 -- 68
2020-09-18 19:00:00 27.1 10 Nordeste 16 Nordeste 0 1007.4 -- 62
2020-09-18 18:00:00 27.6 8 Nordeste 17 Este 0 1006.6 -- 59
2020-09-18 17:00:00 27.3 9 Este 28 Sudeste 0 1007 -- 61
2020-09-18 16:00:00 27.7 15 Sudeste 27 Este 0 1007 -- 62
2020-09-18 15:00:00 26.8 15 Sudeste 28 Sur 0 1007.6 -- 61
2020-09-18 14:00:00 25.2 19 Este 28 Este 0.2 1007.9 -- 69
2020-09-18 13:00:00 25.4 6 Nordeste 20 Sudeste 0 1010.1 -- 62
2020-09-18 12:00:00 24.7 13 Sudeste 27 Sudeste 0 1009.7 -- 71
2020-09-18 11:00:00 23 15 Sudeste 29 Sudeste 0 1009.6 -- 79
2020-09-18 10:00:00 22.1 19 Sudeste 36 Sudeste 0.2 1009.5 -- 86
2020-09-18 09:00:00 21.3 11 Sudeste 23 Este 0 1010.5 -- 85
2020-09-18 08:00:00 21.1 13 Este 21 Este 0 1009.2 -- 88
2020-09-18 07:00:00 21.1 10 Sur 20 Nordeste 0 1008.7 -- 88
2020-09-18 06:00:00 22.2 7 Noroeste 24 Norte 0 1010.4 -- 82
2020-09-18 05:00:00 22.4 9 Sudeste 18 Sudeste 0 1009 -- 87
2020-09-18 04:00:00 22.3 6 Sudeste 10 Oeste 0 1009.4 -- 87
2020-09-18 03:00:00 22.7 3 Norte 13 Noroeste 0 1009.9 -- 85
2020-09-18 02:00:00 22.8 3 Sur 6 Sudoeste 0 1010.1 -- 87
2020-09-18 01:00:00 23 5 Oeste 24 Oeste 0.4 1010.3 -- 90
2020-09-18 00:00:00 23.4 11 Oeste 33 Oeste 0 1011.1 -- 91
2020-09-17 23:00:00 23.6 6 Noroeste 36 Oeste 0.2 1009.1 -- 92
2020-09-17 22:00:00 23.9 23 Oeste 37 Oeste 0 1009.8 -- 91
2020-09-17 21:00:00 23.9 10 Oeste 30 Oeste 1.4 1007.3 -- 79
2020-09-17 20:00:00 24.8 18 Oeste 50 Sudoeste 1.2 1008 -- 76
2020-09-17 19:00:00 26.5 4 Nordeste 8 Este 0 1005.5 -- 74
2020-09-17 18:00:00 26.4 7 Este 13 Este 0 1005.7 -- 72
2020-09-17 17:00:00 26.7 7 Este 14 Nordeste 0 1006.2 -- 72
2020-09-17 16:00:00 27.5 7 Este 18 Este 0 1006.8 -- 68
2020-09-17 15:00:00 27.2 12 Este 23 Este 0 1007.3 -- 73
2020-09-17 14:00:00 27.8 15 Este 23 Este 0 1007.7 -- 72
2020-09-17 13:00:00 26.8 17 Este 26 Este 0 1008.3 -- 78
2020-09-17 12:00:00 -- 21 Este 27 Sudeste 0 1008.8 -- 80
2020-09-17 11:00:00 -- 12 Sudeste 17 Sudeste 0 1009.1 -- 89
2020-09-17 10:00:00 -- 6 Sudeste 10 Este 0 1009.7 -- 89
2020-09-17 09:00:00 -- 7 Este 14 Este 0 1009.4 -- 93
2020-09-17 08:00:00 -- 11 Este 18 Este 0 1009.3 -- 93
2020-09-17 07:00:00 -- 12 Este 17 Este 0 1008.9 -- 94
2020-09-17 06:00:00 -- 11 Este 15 Este 0 1009.2 -- 93
2020-09-17 05:00:00 -- 7 Este 14 Este 0 1009.3 -- 93
2020-09-17 04:00:00 23.4 10 Este 14 Este 0 1009.7 -- 92
2020-09-17 03:00:00 23.4 8 Este 11 Sudeste 0 1010.3 -- 89
2020-09-17 02:00:00 23.8 5 Sudeste 8 Sudeste 0 1011 -- 87
2020-09-17 01:00:00 23.9 4 Este 15 Sudeste 0 1011.3 -- 87
2020-09-17 00:00:00 23.7 5 Norte 8 Norte 0 1010.9 -- 84
2020-09-16 23:00:00 24.2 6 Norte 8 Norte 0 1010.9 -- 85
2020-09-16 22:00:00 24.1 3 Este 8 Este 0 1010.4 -- 85
2020-09-16 21:00:00 24.4 4 Este 11 Este 0 1009.9 -- 84
2020-09-16 20:00:00 24.4 4 Nordeste 14 Este 0 1009.4 -- 82
2020-09-16 19:00:00 25 10 Sudeste 20 Este 0 1009 -- 80
2020-09-16 18:00:00 25.2 12 Este 19 Sudeste 0 1008.8 -- 82
2020-09-16 17:00:00 24.8 11 Este 19 Este 0 1009.3 -- 83
2020-09-16 16:00:00 25.6 15 Este 23 Este 0 1009.8 -- 81
2020-09-16 15:00:00 26.5 16 Este 24 Este 0 1010.5 -- 75
2020-09-16 14:00:00 26.5 14 Este 22 Nordeste 0 1011.2 -- 74
2020-09-16 13:00:00 26.5 14 Este 21 Este 0 1011.7 -- 74
2020-09-16 12:00:00 25.4 13 Este 22 Este 0 1012.2 -- 78
2020-09-16 11:00:00 26 11 Este 17 Este 0 1012.5 -- 78
2020-09-16 10:00:00 -- 13 Este 17 Este 0 1012.4 -- 88
2020-09-16 09:00:00 -- 10 Este 14 Este 0 1012.3 -- 96
2020-09-16 08:00:00 -- 9 Este 12 Este 0 1012.2 -- 96
2020-09-16 07:00:00 -- 9 Este 14 Este 0 1012.2 -- 97
2020-09-16 06:00:00 -- 8 Nordeste 12 Nordeste 0 1012.2 -- 97
2020-09-16 05:00:00 -- 7 Nordeste 10 Nordeste 0 1012.1 -- 96
2020-09-16 04:00:00 22.7 5 Este 7 Este 0 1012.5 -- 91
2020-09-16 03:00:00 22 5 Sudoeste 8 Sudoeste 0 1013.1 -- 87
2020-09-16 02:00:00 22.3 2 Sudoeste 7 Este 0 1013.5 -- 89
2020-09-16 01:00:00 22.9 3 Sudeste 8 Este 0 1013.7 -- 91
2020-09-16 00:00:00 23 5 Sudeste 8 Este 0 1013.8 -- 91
2020-09-15 23:00:00 23.5 4 Sudeste 7 Este 0 1013.8 -- 90
2020-09-15 22:00:00 23.7 5 Sudeste 13 Este 0 1013.4 -- 90
2020-09-15 21:00:00 23.9 7 Este 11 Este 0 1012.8 -- 90
2020-09-15 20:00:00 -- 8 Este 16 Este 0 1012.6 -- 88
2020-09-15 19:00:00 24.9 13 Nordeste 21 Norte 0 1012.7 -- 85
2020-09-15 18:00:00 24.9 13 Nordeste 22 Nordeste 0 1012.6 -- 83
2020-09-15 17:00:00 25.7 16 Nordeste 22 Norte 0 1012.7 -- 80
2020-09-15 16:00:00 26.3 15 Nordeste 24 Norte 0 1013.1 -- 76
2020-09-15 15:00:00 26.5 13 Nordeste 23 Nordeste 0 1013.6 -- 77
2020-09-15 14:00:00 26.4 13 Nordeste 21 Norte 0 1014 -- 77
2020-09-15 13:00:00 26.1 14 Nordeste 19 Norte 0 1014.6 -- 77
2020-09-15 12:00:00 26.4 9 Nordeste 16 Nordeste 0 1015 -- 74
2020-09-15 11:00:00 25.4 3 Oeste 8 Norte 0 1014.8 -- 79
2020-09-15 10:00:00 24.2 3 Oeste 5 Sudoeste 0 1014.3 -- 88
2020-09-15 09:00:00 23.3 2 Norte 7 Norte 0 1014 -- 91
2020-09-15 08:00:00 23.2 4 Noroeste 6 Noroeste 0 1013.6 -- 90
2020-09-15 07:00:00 22.7 2 Oeste 8 Noroeste 0 1013.2 -- 90
2020-09-15 06:00:00 23.2 2 Sudoeste 5 Sudoeste 0 1013.1 -- 89
2020-09-15 05:00:00 22.9 3 Oeste 9 Oeste 0 1013.3 -- 89
2020-09-15 04:00:00 23.2 3 Noroeste 6 Noroeste 0 1013.7 -- 89
2020-09-15 03:00:00 23.4 4 Sudoeste 10 Este 0 1013.6 -- 89
2020-09-15 02:00:00 23.3 5 Este 11 Norte 0 1013.7 -- 88
2020-09-15 01:00:00 23.7 5 Norte 17 Nordeste 0 1014 -- 87
2020-09-15 00:00:00 24.1 9 Nordeste 14 Nordeste 0 1013.7 -- 85
2020-09-14 23:00:00 24.2 9 Nordeste 16 Sudeste 0 1013.7 -- 81
2020-09-14 22:00:00 24.2 5 Sur 23 Sur 0 1013.4 -- 78
2020-09-14 21:00:00 24.5 17 Sudeste 37 Este 0 1012.5 -- 87
2020-09-14 20:00:00 24.3 5 Sudeste 14 Nordeste 0 1014.7 -- 86
2020-09-14 19:00:00 24.8 11 Este 22 Nordeste 0 1012.9 -- 86
2020-09-14 18:00:00 24.5 13 Nordeste 26 Este 0 1013.1 -- 85
2020-09-14 17:00:00 25.2 14 Nordeste 27 Nordeste 0 1013.1 -- 84
2020-09-14 16:00:00 25.8 18 Nordeste 27 Nordeste 0 1013.1 -- 81
2020-09-14 15:00:00 25.4 15 Nordeste 23 Nordeste 0 1014 -- 81
2020-09-14 14:00:00 25.9 15 Nordeste 22 Este 0 1014.4 -- 80
2020-09-14 13:00:00 25.9 12 Este 20 Este 0 1014.6 -- 81
2020-09-14 12:00:00 25.6 16 Este 25 Este 0 1014.7 -- 83
2020-09-14 11:00:00 25.3 12 Este 17 Este 0 1014.8 -- 86
2020-09-14 10:00:00 24.3 11 Este 17 Este 0 1014.6 -- 88
2020-09-14 09:00:00 -- 9 Este 18 Este 0 1013.9 -- 91
2020-09-14 08:00:00 24.1 12 Este 22 Este 0 1013.2 -- 92
2020-09-14 07:00:00 23.5 11 Este 17 Este 0 1012.6 -- 93
2020-09-14 06:00:00 23.9 9 Este 16 Este 0 1012.4 -- 91
2020-09-14 05:00:00 23.8 7 Nordeste 17 Nordeste 0 1012.8 -- 89
2020-09-14 04:00:00 23.7 12 Nordeste 21 Nordeste 0 1013.1 -- 89
2020-09-14 03:00:00 23.9 15 Este 27 Sudeste 0 1013.7 -- 87
2020-09-14 02:00:00 24.1 14 Sudeste 25 Sudeste 0 1014.5 -- 84
2020-09-14 01:00:00 24.3 15 Este 21 Este 0 1014.7 -- 82
2020-09-14 00:00:00 24.5 11 Sudeste 17 Este 0 1015.9 -- 78
2020-09-13 23:00:00 24.6 9 Sudoeste 14 Sudoeste 0 1016.2 -- 79
2020-09-13 22:00:00 24.2 8 Este 17 Este 0 1014.5 -- 83
2020-09-13 21:00:00 24.4 13 Este 21 Este 0 1013.5 -- 82
2020-09-13 20:00:00 24.7 14 Sudeste 25 Este 0 1013.2 -- 81
2020-09-13 19:00:00 25.4 17 Este 27 Este 0 1012.7 -- 79
2020-09-13 18:00:00 25.6 15 Este 28 Sudeste 0 1012.6 -- 77
2020-09-13 17:00:00 26.1 15 Este 26 Este 0 1012.6 -- 77
2020-09-13 16:00:00 26.5 17 Este 27 Este 0 1012.9 -- 74
2020-09-13 15:00:00 26.1 18 Este 27 Este 0 1013.1 -- 76
2020-09-13 14:00:00 26.9 16 Este 25 Este 0 1013.4 -- 74
2020-09-13 13:00:00 25.9 15 Este 25 Este 0 1013.8 -- 78
2020-09-13 12:00:00 25.3 14 Este 22 Este 0 1013.8 -- 80
2020-09-13 11:00:00 24.8 13 Este 24 Este 0 1013.6 -- 83
2020-09-13 10:00:00 24.6 15 Este 22 Este 0 1013 -- 84
2020-09-13 09:00:00 24 15 Este 23 Este 0 1012.5 -- 87
2020-09-13 08:00:00 23.5 12 Este 20 Este 0 1011.7 -- 88
2020-09-13 07:00:00 23.6 13 Este 19 Sudeste 0 1011.3 -- 88
2020-09-13 06:00:00 23.7 13 Este 19 Este 0 1011 -- 87
2020-09-13 05:00:00 23.8 12 Este 19 Este 0 1011 -- 86
2020-09-13 04:00:00 23.4 9 Sudeste 17 Sudeste 0 1011 -- 84
2020-09-13 03:00:00 23.7 10 Este 14 Este 0 1010.8 -- 82
2020-09-13 02:00:00 24 8 Sudeste 15 Este 0 1011.4 -- 79
2020-09-13 01:00:00 24.3 9 Este 20 Este 0 1011.5 -- 78
2020-09-13 00:00:00 24.5 12 Este 18 Este 0 1011.6 -- 76
2020-09-12 23:00:00 24.8 12 Este 19 Este 0 1011.4 -- 73
2020-09-12 22:00:00 25 12 Sudeste 22 Sudeste 0 1010.7 -- 70
2020-09-12 21:00:00 25.1 12 Sudeste 19 Sudeste 0 1009.9 -- 71
2020-09-12 20:00:00 25.4 13 Este 21 Este 0 1009.4 -- 71
2020-09-12 19:00:00 26.1 11 Este 20 Este 0 1009 -- 72
2020-09-12 18:00:00 26.6 15 Este 22 Este 0 1008.6 -- 72
2020-09-12 17:00:00 27.1 15 Este 28 Nordeste 0 1008.5 -- 72
2020-09-12 16:00:00 26.8 15 Nordeste 24 Nordeste 0 1008.6 -- 72
2020-09-12 15:00:00 27 13 Este 25 Nordeste 0 1009 -- 70
2020-09-12 14:00:00 27.3 18 Nordeste 25 Nordeste 0 1009.1 -- 61
2020-09-12 13:00:00 26.2 15 Nordeste 23 Nordeste 0 1009.2 -- 72
2020-09-12 12:00:00 26.5 11 Este 19 Este 0 1009.3 -- 72
2020-09-12 11:00:00 25.4 10 Nordeste 18 Nordeste 0 1009.2 -- 80
2020-09-12 10:00:00 24.6 10 Nordeste 16 Nordeste 0 1008.8 -- 85
2020-09-12 09:00:00 23.6 4 Este 8 Este 0 1008.6 -- 90
2020-09-12 08:00:00 22 4 Sudoeste 7 Noroeste 0 1008 -- 91
2020-09-12 07:00:00 22 4 Oeste 9 Sudoeste 0 1007.5 -- 89
2020-09-12 06:00:00 22 4 Oeste 8 Oeste 0 1007 -- 87
2020-09-12 05:00:00 22.4 5 Oeste 12 Noroeste 0 1007.1 -- 85
2020-09-12 04:00:00 22.5 8 Oeste 14 Noroeste 0 1007.1 -- 84
2020-09-12 03:00:00 22.6 6 Oeste 10 Sudoeste 0 1007.1 -- 80
2020-09-12 02:00:00 22.8 3 Oeste 6 Oeste 0 1007.2 -- 77
2020-09-12 01:00:00 23.2 3 Noroeste 9 Norte 0 1007.5 -- 75
2020-09-12 00:00:00 23.7 4 Noroeste 9 Noroeste 0 1007.4 -- 75
2020-09-11 23:00:00 24.1 3 Nordeste 6 Sudeste 0 1007 -- 73
2020-09-11 22:00:00 24 5 Sudeste 12 Sudeste 0 1006.8 -- 75
2020-09-11 21:00:00 24.2 9 Este 15 Sudeste 0 1006.1 -- 73
2020-09-11 20:00:00 24.6 5 Este 13 Este 0 1006 -- 78
2020-09-11 19:00:00 25.2 9 Este 19 Este 0 1006.2 -- 79
2020-09-11 18:00:00 25.4 10 Nordeste 19 Nordeste 0 1006.5 -- 78
2020-09-11 17:00:00 25.6 12 Este 21 Nordeste 0 1006.8 -- 76
2020-09-11 16:00:00 26 13 Este 22 Este 0 1007.1 -- 70
2020-09-11 15:00:00 26.1 15 Nordeste 24 Este 0 1007.7 -- 70
2020-09-11 14:00:00 25.6 14 Nordeste 23 Nordeste 0 1008.2 -- 75
2020-09-11 13:00:00 25.3 14 Nordeste 23 Este 0 1008.6 -- 74
2020-09-11 12:00:00 25.1 14 Este 22 Este 0 1008.9 -- 73
2020-09-11 11:00:00 25 14 Este 19 Nordeste 0 1008.9 -- 76
2020-09-11 10:00:00 24.2 13 Este 17 Este 0 1008.5 -- 80
2020-09-11 09:00:00 23.2 8 Este 12 Este 0 1008.3 -- 84
2020-09-11 08:00:00 21.2 4 Sur 5 Sur 0 1008.1 -- 87
2020-09-11 07:00:00 21.5 3 Sur 8 Sudeste 0 1008 -- 88
2020-09-11 06:00:00 21.6 5 Sudeste 8 Sudeste 0 1007.9 -- 87
2020-09-11 05:00:00 21.7 4 Sur 6 Sudeste 0 1008.1 -- 85
2020-09-11 04:00:00 22.2 6 Sudeste 10 Sudeste 0 1008.3 -- 87
2020-09-11 03:00:00 22.6 6 Sudeste 10 Este 0 1008.9 -- 87
2020-09-11 02:00:00 22.5 5 Sudeste 8 Sudeste 0 1009.5 -- 86
2020-09-11 01:00:00 22.2 4 Sudeste 6 Sudeste 0 1009.7 -- 86
2020-09-11 00:00:00 22.5 4 Sudeste 10 Sudeste 0 1009.8 -- 86
2020-09-10 23:00:00 22.9 7 Este 12 Sudeste 0 1009.6 -- 85
2020-09-10 22:00:00 22.9 8 Sudeste 15 Este 0 1009.5 -- 84
2020-09-10 21:00:00 23.5 8 Sudeste 15 Sudeste 0 1008.9 -- 80
2020-09-10 20:00:00 24 11 Sudeste 17 Este 0 1008.9 -- 77
2020-09-10 19:00:00 24.9 11 Este 17 Este 0 1009 -- 73
2020-09-10 18:00:00 25.2 12 Este 19 Este 0 1009.3 -- 73
2020-09-10 17:00:00 25.4 12 Este 23 Nordeste 0 1009.8 -- 68
2020-09-10 16:00:00 25.7 15 Este 21 Nordeste 0 1010.2 -- 64
2020-09-10 15:00:00 25.4 14 Este 22 Nordeste 0 1010.8 -- 69
2020-09-10 14:00:00 25.3 14 Nordeste 24 Este 0 1011.4 -- 70
2020-09-10 13:00:00 25.7 14 Este 21 Este 0 1012.4 -- 67
2020-09-10 12:00:00 24.7 12 Este 19 Este 0 1012.7 -- 71
2020-09-10 11:00:00 24.6 11 Este 18 Este 0 1012.8 -- 71
2020-09-10 10:00:00 23.7 10 Este 16 Este 0 1012.6 -- 76
2020-09-10 09:00:00 22.3 7 Sudeste 11 Sudeste 0 1012.4 -- 83
2020-09-10 08:00:00 21.1 5 Sudeste 7 Sudeste 0 1011.9 -- 85
2020-09-10 07:00:00 21.5 4 Sudoeste 5 Sudoeste 0 1011.7 -- 85
2020-09-10 06:00:00 21.1 0 Calma 6 Sudeste 0 1012 -- 84
2020-09-10 05:00:00 21.1 3 Sudeste 6 Sudeste 0 1012.3 -- 83
2020-09-10 04:00:00 21.2 2 Sudoeste 4 Sudoeste 0 1012.7 -- 82
2020-09-10 03:00:00 21.4 3 Oeste 6 Sudoeste 0 1013.3 -- 80
2020-09-10 02:00:00 21.4 4 Sudoeste 6 Sudoeste 0 1013.6 -- 76
2020-09-10 01:00:00 22.3 5 Sudoeste 9 Sudeste 0 1013.9 -- 80
2020-09-10 00:00:00 22.8 6 Sudeste 12 Este 0 1014 -- 80
2020-09-09 23:00:00 23 9 Este 15 Este 0 1013.8 -- 79
2020-09-09 22:00:00 23.3 11 Este 18 Este 0 1013.3 -- 78
2020-09-09 21:00:00 23.5 10 Sudeste 16 Sudeste 0 1012.4 -- 75
2020-09-09 20:00:00 23.9 10 Este 18 Este 0 1012 -- 72
2020-09-09 19:00:00 24.9 13 Este 23 Este 0 1012.1 -- 67
2020-09-09 18:00:00 25.2 15 Nordeste 24 Nordeste 0 1012 -- 67
2020-09-09 17:00:00 25.6 17 Nordeste 25 Este 0 1012.2 -- 69
2020-09-09 16:00:00 26.1 18 Este 25 Este 0 1012.6 -- 67
2020-09-09 15:00:00 26.2 13 Este 25 Este 0 1013 -- 69
2020-09-09 14:00:00 25.9 14 Este 26 Este 0 1013.3 -- 70
2020-09-09 13:00:00 25.8 14 Este 22 Este 0 1013.8 -- 68
2020-09-09 12:00:00 25.7 15 Este 25 Este 0 1014.1 -- 66
2020-09-09 11:00:00 25 14 Este 24 Este 0 1014.2 -- 70
2020-09-09 10:00:00 24.5 17 Este 25 Este 0 1013.7 -- 73
2020-09-09 09:00:00 23.3 12 Sudeste 19 Este 0 1013.4 -- 78
2020-09-09 08:00:00 22.4 10 Sudeste 21 Este 0 1012.9 -- 80
2020-09-09 07:00:00 22.4 10 Sudeste 20 Este 0 1012.7 -- 83
2020-09-09 06:00:00 22.8 14 Este 23 Este 0 1012.7 -- 80
2020-09-09 05:00:00 23 15 Este 24 Este 0 1012.9 -- 78
2020-09-09 04:00:00 23.1 17 Este 26 Este 0 1013.2 -- 77
2020-09-09 03:00:00 23.3 16 Este 25 Este 0 1013.6 -- 77
2020-09-09 02:00:00 23.5 15 Este 23 Este 0 1014 -- 77
2020-09-09 01:00:00 23.5 15 Este 25 Este 0 1014.1 -- 78
2020-09-09 00:00:00 23.7 16 Este 26 Este 0 1014.2 -- 77
2020-09-08 23:00:00 23.9 17 Este 26 Este 0 1014.1 -- 77
2020-09-08 22:00:00 23.9 14 Este 28 Este 0 1013.8 -- 78
2020-09-08 21:00:00 24 14 Este 28 Este 0 1013.3 -- 76
2020-09-08 20:00:00 24.1 19 Este 34 Este 0 1012.7 -- 75
2020-09-08 19:00:00 24.6 22 Este 37 Este 0 1012.4 -- 75
2020-09-08 18:00:00 25.6 23 Este 35 Este 0 1012.5 -- 73
2020-09-08 17:00:00 25.4 24 Este 40 Nordeste 0 1012.4 -- 74
2020-09-08 16:00:00 25.8 24 Nordeste 36 Este 0 1012.5 -- 72
2020-09-08 15:00:00 26.8 25 Este 37 Este 0 1012.8 -- 68
2020-09-08 14:00:00 26.8 18 Este 28 Sudeste 0 1013.1 -- 69
2020-09-08 13:00:00 27.2 15 Sudeste 27 Sudeste 0 1013.3 -- 68
2020-09-08 12:00:00 26.7 14 Sudeste 26 Sudeste 0 1013.3 -- 71
2020-09-08 11:00:00 26.1 12 Este 23 Este 0 1013.5 -- 72
2020-09-08 10:00:00 25.2 10 Sudeste 17 Sudeste 0 1012.9 -- 76
2020-09-08 09:00:00 24.3 6 Sudeste 9 Sudeste 0 1012.6 -- 83
2020-09-08 08:00:00 22.7 4 Sur 7 Sudeste 0 1012.3 -- 85
2020-09-08 07:00:00 23.1 5 Sudeste 10 Sudeste 0 1011.9 -- 85
2020-09-08 06:00:00 23.4 6 Sudeste 14 Sudeste 0 1011.7 -- 84
2020-09-08 05:00:00 23.6 8 Este 17 Este 0 1011.5 -- 86
2020-09-08 04:00:00 23.7 14 Este 24 Este 0 1011.4 -- 83
2020-09-08 03:00:00 24.1 15 Este 23 Este 0 1011.7 -- 82
2020-09-08 02:00:00 23.9 14 Este 23 Este 0 1011.8 -- 81
2020-09-08 01:00:00 23.9 14 Este 22 Sudeste 0 1012 -- 82
2020-09-08 00:00:00 24.2 18 Este 24 Este 0 1011.8 -- 80
2020-09-07 23:00:00 24.2 17 Este 24 Este 0 1011.5 -- 81
2020-09-07 22:00:00 24.2 13 Este 17 Este 0 1010.5 -- 81
2020-09-07 21:00:00 24.3 12 Este 19 Este 0 1009.6 -- 81
2020-09-07 20:00:00 24.8 10 Este 16 Este 0 1008.6 -- 78
2020-09-07 19:00:00 25.4 11 Este 18 Nordeste 0 1008.3 -- 76
2020-09-07 18:00:00 26.2 10 Este 19 Nordeste 0 1008.2 -- 69
2020-09-07 17:00:00 26.4 12 Este 21 Este 0 1008.3 -- 72
2020-09-07 16:00:00 26.5 12 Nordeste 19 Nordeste 0 1008.6 -- 71
2020-09-07 15:00:00 27 13 Este 19 Este 0 1009.2 -- 69
2020-09-07 14:00:00 26.4 13 Nordeste 18 Nordeste 0 1009.4 -- 71
2020-09-07 13:00:00 26.1 11 Nordeste 22 Nordeste 0 1009.8 -- 72
2020-09-07 12:00:00 25.7 12 Nordeste 17 Nordeste 0 1010.1 -- 72
2020-09-07 11:00:00 25.6 10 Este 13 Este 0 1009.7 -- 71
2020-09-07 10:00:00 24.3 5 Norte 10 Norte 0 1009.4 -- 75
2020-09-07 09:00:00 21.9 5 Noroeste 11 Norte 0 1009.2 -- 79
2020-09-07 08:00:00 20.4 5 Sudoeste 9 Sudoeste 0 1009 -- 86
2020-09-07 07:00:00 21.2 4 Oeste 10 Norte 0 1009 -- 88
2020-09-07 06:00:00 21.5 5 Sudoeste 8 Sudoeste 0 1008.7 -- 88
2020-09-07 05:00:00 21.9 4 Sudeste 8 Sudeste 0 1008.8 -- 87
2020-09-07 04:00:00 22.1 4 Sudeste 5 Sudeste 0 1009 -- 86
2020-09-07 03:00:00 22.4 3 Sur 8 Sudeste 0 1009.4 -- 84
2020-09-07 02:00:00 23 5 Sudeste 11 Sudeste 0 1009.7 -- 85
2020-09-07 01:00:00 23.2 8 Sudeste 14 Este 0 1010 -- 85
2020-09-07 00:00:00 23.7 8 Sudeste 13 Sudeste 0 1010 -- 83
2020-09-06 23:00:00 23.8 8 Sudeste 13 Sudeste 0 1009.8 -- 82
2020-09-06 22:00:00 23.7 10 Este 17 Este 0 1009.5 -- 81
2020-09-06 21:00:00 24 9 Sudeste 16 Este 0 1009 -- 80
2020-09-06 20:00:00 24.6 12 Este 21 Este 0 1008.7 -- 77
2020-09-06 19:00:00 25.2 15 Este 28 Este 0 1008.8 -- 74
2020-09-06 18:00:00 25.8 14 Este 24 Este 0 1008.6 -- 73
2020-09-06 17:00:00 26 15 Nordeste 24 Este 0 1009 -- 69
2020-09-06 16:00:00 26.4 15 Este 23 Este 0 1009.5 -- 65
2020-09-06 15:00:00 26.2 14 Este 23 Este 0 1009.8 -- 66
2020-09-06 14:00:00 26.2 15 Este 26 Este 0 1010.1 -- 64
2020-09-06 13:00:00 26.5 14 Este 26 Este 0 1010.6 -- 63
2020-09-06 12:00:00 26.4 13 Sudeste 26 Sudeste 0 1010.7 -- 66
2020-09-06 11:00:00 25.9 12 Sudeste 23 Sudeste 0 1010.3 -- 68
2020-09-06 10:00:00 25.1 11 Sudeste 21 Sudeste 0 1010 -- 72
2020-09-06 09:00:00 23.7 11 Sudeste 17 Sudeste 0 1009.8 -- 79
2020-09-06 08:00:00 22.4 9 Sudeste 18 Este 0 1009.5 -- 85
2020-09-06 07:00:00 22.7 14 Este 22 Este 0 1009.2 -- 83
2020-09-06 06:00:00 22.8 14 Este 21 Este 0 1009.2 -- 84
2020-09-06 05:00:00 23.1 14 Este 21 Este 0 1009.5 -- 83
2020-09-06 04:00:00 22.7 9 Este 12 Este 0 1009.9 -- 85
2020-09-06 03:00:00 22.7 9 Este 13 Este 0 1010.3 -- 83
2020-09-06 02:00:00 23 8 Este 13 Este 0 1011 -- 82
2020-09-06 01:00:00 23.2 11 Este 17 Este 0 1011.3 -- 81
2020-09-06 00:00:00 23.5 13 Este 20 Este 0 1011.4 -- 81
2020-09-05 23:00:00 23.7 14 Este 20 Este 0 1011 -- 80
2020-09-05 22:00:00 23.8 14 Este 20 Este 0 1010.9 -- 79
2020-09-05 21:00:00 24 13 Este 21 Sudeste 0 1010.4 -- 77
2020-09-05 20:00:00 24.5 15 Este 22 Este 0 1010.2 -- 75
2020-09-05 19:00:00 25.5 16 Este 23 Nordeste 0 1010.2 -- 71
2020-09-05 18:00:00 26.2 16 Este 27 Nordeste 0 1010.3 -- 68
2020-09-05 17:00:00 25.8 16 Este 24 Este 0 1010.6 -- 72
2020-09-05 16:00:00 26.8 15 Este 24 Nordeste 0 1011.3 -- 67
2020-09-05 15:00:00 26.6 15 Este 25 Este 0 1011.9 -- 68
2020-09-05 14:00:00 26 16 Este 28 Sudeste 0 1012.4 -- 72
2020-09-05 13:00:00 27.1 15 Este 25 Este 0 1012.9 -- 67
2020-09-05 12:00:00 26.8 16 Sudeste 26 Este 0 1013.4 -- 68
2020-09-05 11:00:00 25.8 14 Este 24 Sudeste 0 1013.2 -- 73
2020-09-05 10:00:00 25.1 14 Sudeste 24 Sudeste 0 1013.2 -- 76
2020-09-05 09:00:00 24.1 13 Sudeste 22 Este 0 1013.1 -- 81
2020-09-05 08:00:00 23.5 11 Este 18 Este 0 1012.9 -- 84
2020-09-05 07:00:00 23.3 12 Este 21 Este 0 1012.7 -- 85
2020-09-05 06:00:00 23.7 14 Este 29 Nordeste 0 1012.6 -- 85
2020-09-05 05:00:00 23.7 14 Este 22 Este 0 1013 -- 84
2020-09-05 04:00:00 23.9 14 Este 22 Este 0 1013.3 -- 84
2020-09-05 03:00:00 23.8 13 Este 19 Este 0 1013.9 -- 86
2020-09-05 02:00:00 23.8 12 Este 18 Este 0 1014.1 -- 86
2020-09-05 01:00:00 24.2 10 Sudeste 18 Este 0 1014.6 -- 84
2020-09-05 00:00:00 24.2 11 Este 18 Este 0 1014.8 -- 85
2020-09-04 23:00:00 24.4 11 Este 21 Este 0 1014.8 -- 84
2020-09-04 22:00:00 24.6 13 Este 21 Sudeste 0 1014.4 -- 82
2020-09-04 21:00:00 24.7 15 Este 24 Este 0 1013.8 -- 83
2020-09-04 20:00:00 25.1 15 Este 23 Este 0 1013.6 -- 80
2020-09-04 19:00:00 25.5 15 Este 24 Este 0 1013.7 -- 78
2020-09-04 18:00:00 26.4 18 Este 27 Este 0 1013.7 -- 74
2020-09-04 17:00:00 26.5 18 Este 27 Nordeste 0 1013.8 -- 73
2020-09-04 16:00:00 26.3 20 Este 28 Este 0 1014.1 -- 75
2020-09-04 15:00:00 26.7 18 Este 30 Este 0 1014.8 -- 72
2020-09-04 14:00:00 26.7 20 Este 31 Este 0 1015 -- 72
2020-09-04 13:00:00 26.4 23 Este 34 Este 0 1015.3 -- 73
2020-09-04 12:00:00 25.2 24 Este 34 Este 0 1015.4 -- 77
2020-09-04 11:00:00 25.2 22 Este 34 Este 0 1015.1 -- 78
2020-09-04 10:00:00 24.9 23 Este 31 Este 0 1014.5 -- 79
2020-09-04 09:00:00 24.1 21 Este 31 Este 0 1014.2 -- 83
2020-09-04 08:00:00 23.8 21 Este 31 Este 0 1013.7 -- 82
2020-09-04 07:00:00 23.8 21 Este 32 Este 0 1013.5 -- 81
2020-09-04 06:00:00 23.8 19 Este 29 Este 0 1013.4 -- 81
2020-09-04 05:00:00 23.9 18 Este 30 Este 0 1013.5 -- 82
2020-09-04 04:00:00 23.7 19 Este 30 Este 0 1013.7 -- 82
2020-09-04 03:00:00 23.9 17 Este 26 Este 0 1014 -- 83
2020-09-04 02:00:00 23.9 17 Este 28 Este 0 1014.6 -- 83
2020-09-04 01:00:00 24 17 Este 30 Este 0 1014.7 -- 83
2020-09-04 00:00:00 24.1 19 Este 29 Este 0 1014.8 -- 79
2020-09-03 23:00:00 24.4 18 Este 31 Este 0 1014.7 -- 78
2020-09-03 22:00:00 24.6 21 Este 33 Este 0 1014.4 -- 75
2020-09-03 21:00:00 24.8 22 Este 36 Este 0 1013.7 -- 77
2020-09-03 20:00:00 25.2 22 Este 35 Este 0 1013.1 -- 74
2020-09-03 19:00:00 26.3 23 Este 40 Nordeste 0 1012.9 -- 70
2020-09-03 18:00:00 26.8 24 Este 39 Este 0 1012.7 -- 67
2020-09-03 17:00:00 27.2 23 Este 51 Nordeste 0 1012.7 -- 63
2020-09-03 16:00:00 27.2 25 Este 37 Este 0 1012.9 -- 64
2020-09-03 15:00:00 27.5 25 Este 41 Este 0 1013.4 -- 67
2020-09-03 14:00:00 26.9 25 Este 45 Este 0 1013.8 -- 67
2020-09-03 13:00:00 26.9 25 Este 33 Este 0 1014.1 -- 63
2020-09-03 12:00:00 26.3 19 Este 30 Este 0 1014 -- 71
2020-09-03 11:00:00 26.2 20 Este 30 Este 0 1013.5 -- 70
2020-09-03 10:00:00 25.3 20 Sudeste 28 Sudeste 0 1013.1 -- 74
2020-09-03 09:00:00 24.6 18 Este 27 Este 0 1012.6 -- 77
2020-09-03 08:00:00 23.6 14 Este 23 Este 0 1011.9 -- 82
2020-09-03 07:00:00 23.5 16 Este 24 Este 0 1011.6 -- 82
2020-09-03 06:00:00 23.4 13 Este 23 Este 0 1011.2 -- 81
2020-09-03 05:00:00 23.6 15 Este 23 Este 0 1011.4 -- 80
2020-09-03 04:00:00 23.9 16 Este 23 Este 0 1011.3 -- 79
2020-09-03 03:00:00 24.1 15 Este 22 Este 0 1011.4 -- 80
2020-09-03 02:00:00 24.2 12 Este 21 Este 0 1011.7 -- 76
2020-09-03 01:00:00 24.2 12 Este 23 Este 0 1011.6 -- 75
2020-09-03 00:00:00 24.4 12 Este 22 Sudeste 0 1011.5 -- 74
2020-09-02 23:00:00 24.3 13 Este 22 Este 0 1011.3 -- 75
2020-09-02 22:00:00 24.4 16 Este 25 Este 0 1010.7 -- 74
2020-09-02 21:00:00 24.8 16 Este 26 Este 0 1009.8 -- 69
2020-09-02 20:00:00 25.3 14 Nordeste 22 Este 0 1009.2 -- 70
2020-09-02 19:00:00 26 17 Nordeste 32 Este 0 1008.8 -- 68
2020-09-02 18:00:00 26.3 15 Nordeste 26 Este 0 1008.5 -- 66
2020-09-02 17:00:00 26.6 17 Este 26 Este 0 1008.6 -- 64
2020-09-02 16:00:00 26.7 14 Este 28 Este 0 1008.8 -- 63
2020-09-02 15:00:00 27.1 16 Este 32 Nordeste 0 1009.1 -- 64
2020-09-02 14:00:00 26.8 16 Este 26 Este 0 1009 -- 63
2020-09-02 13:00:00 26.6 17 Nordeste 26 Nordeste 0 1009 -- 63
2020-09-02 12:00:00 26 12 Este 19 Este 0 1009 -- 65
2020-09-02 11:00:00 25.8 12 Este 18 Este 0 1008.4 -- 64
2020-09-02 10:00:00 25.4 8 Este 20 Sudeste 0 1007.6 -- 64
2020-09-02 09:00:00 22.6 2 Norte 7 Norte 0 1007.3 -- 79
2020-09-02 08:00:00 21.4 0 Calma 5 Norte 0 1007.2 -- 84
2020-09-02 07:00:00 21.6 4 Sudoeste 6 Sudoeste 0 1006.7 -- 86
2020-09-02 06:00:00 21.1 5 Sudoeste 7 Sudoeste 0 1006.5 -- 84
2020-09-02 05:00:00 20.6 3 Oeste 9 Sudoeste 0 1006.4 -- 74
2020-09-02 04:00:00 21.1 6 Sudoeste 12 Sudoeste 0 1006.5 -- 65
2020-09-02 03:00:00 21.7 4 Oeste 9 Norte 0 1006.4 -- 77
2020-09-02 02:00:00 22.3 6 Sudoeste 8 Sudoeste 0 1006.9 -- 76
2020-09-02 01:00:00 22.9 4 Sur 6 Sur 0 1007 -- 79
2020-09-02 00:00:00 23.4 3 Oeste 14 Norte 0 1006.9 -- 80
2020-09-01 23:00:00 24.2 9 Norte 15 Norte 0 1006.7 -- 77
2020-09-01 22:00:00 24.4 3 Norte 8 Norte 0 1006.1 -- 67
2020-09-01 21:00:00 24.4 4 Este 12 Este 0 1005.8 -- 68
2020-09-01 20:00:00 24.9 6 Nordeste 16 Este 0 1005.3 -- 66
2020-09-01 19:00:00 25.4 9 Este 18 Nordeste 0 1005.3 -- 64
2020-09-01 18:00:00 25.9 10 Este 19 Este 0 1005.4 -- 62
2020-09-01 17:00:00 26.6 12 Nordeste 22 Este 0 1005.7 -- 59
2020-09-01 16:00:00 27.2 14 Este 26 Nordeste 0 1005.8 -- 57
2020-09-01 15:00:00 27.1 17 Nordeste 29 Este 0 1006.4 -- 56
2020-09-01 14:00:00 26.9 17 Nordeste 28 Este 0 1006.8 -- 61
2020-09-01 13:00:00 26.9 16 Nordeste 27 Nordeste 0 1007 -- 63
2020-09-01 12:00:00 27 15 Este 26 Este 0 1007.2 -- 63
2020-09-01 11:00:00 26.6 14 Este 24 Este 0 1007.1 -- 65
2020-09-01 10:00:00 26.3 17 Este 23 Este 0 1006.9 -- 62
2020-09-01 09:00:00 25.2 12 Este 19 Este 0 1006.8 -- 65
2020-09-01 08:00:00 23.6 11 Este 17 Este 0 1006.9 -- 71
2020-09-01 07:00:00 23.6 12 Este 18 Este 0 1006.9 -- 72
2020-09-01 06:00:00 23 3 Sudeste 14 Nordeste 0 1007 -- 78
2020-09-01 05:00:00 23.6 7 Nordeste 16 Este 0 1007.1 -- 77
2020-09-01 04:00:00 23.9 12 Este 18 Este 0 1007.6 -- 75
2020-09-01 03:00:00 24.1 13 Este 18 Este 0 1007.8 -- 71
2020-09-01 02:00:00 24 10 Este 17 Este 0 1008.4 -- 71
2020-09-01 01:00:00 24.3 12 Este 17 Este 0 1009.1 -- 68
2020-09-01 00:00:00 24.4 10 Este 18 Este 0 1009.4 -- 72
2020-08-31 23:00:00 24.7 14 Este 23 Este 0 1009.4 -- 72
2020-08-31 22:00:00 24.8 15 Este 23 Este 0 1009.4 -- 69
2020-08-31 21:00:00 25 16 Este 24 Este 0 1008.5 -- 68
2020-08-31 20:00:00 25.7 18 Este 27 Este 0 1008.4 -- 61
2020-08-31 19:00:00 26.5 19 Este 30 Este 0 1008.3 -- 61
2020-08-31 18:00:00 27.1 19 Este 35 Nordeste 0 1008.3 -- 60
2020-08-31 17:00:00 27 24 Este 38 Nordeste 0 1008.7 -- 63
2020-08-31 16:00:00 27.5 22 Nordeste 37 Este 0 1009.1 -- 61
2020-08-31 15:00:00 27 26 Nordeste 37 Este 0 1009.9 -- 63
2020-08-31 14:00:00 27.1 26 Este 37 Este 0 1010.3 -- 64
2020-08-31 13:00:00 27.4 27 Este 37 Este 0 1010.7 -- 63
2020-08-31 12:00:00 27.5 24 Este 36 Este 0 1010.8 -- 63
2020-08-31 11:00:00 26.7 25 Este 35 Este 0 1010.5 -- 65
2020-08-31 10:00:00 26.1 21 Este 30 Este 0 1010.3 -- 69
2020-08-31 09:00:00 25.1 19 Este 28 Este 0 1009.9 -- 73
2020-08-31 08:00:00 24 17 Este 28 Este 0 1009.4 -- 75
2020-08-31 07:00:00 24.1 17 Este 27 Este 0 1009.2 -- 78
2020-08-31 06:00:00 24 16 Este 26 Este 0 1008.9 -- 79
2020-08-31 05:00:00 24 15 Este 21 Nordeste 0 1008.5 -- 82
2020-08-31 04:00:00 24 11 Este 18 Este 0 1008.5 -- 82
2020-08-31 03:00:00 24.2 14 Nordeste 20 Nordeste 0 1008.7 -- 81
2020-08-31 02:00:00 24.6 13 Nordeste 18 Nordeste 0 1008.8 -- 78
2020-08-31 01:00:00 24.8 9 Nordeste 16 Este 0 1008.6 -- 76
2020-08-31 00:00:00 24.7 12 Este 20 Sudeste 0 1008.4 -- 75
2020-08-30 23:00:00 25 13 Este 20 Este 0 1008 -- 73
2020-08-30 22:00:00 25 11 Este 19 Este 0 1007.2 -- 73
2020-08-30 21:00:00 25 13 Este 21 Este 0 1006.2 -- 72
2020-08-30 20:00:00 25.7 15 Nordeste 30 Nordeste 0 1005.3 -- 70
2020-08-30 19:00:00 25.9 19 Nordeste 31 Nordeste 0 1004.7 -- 70
2020-08-30 18:00:00 26.6 18 Nordeste 31 Nordeste 0 1004.3 -- 66
2020-08-30 17:00:00 26.8 22 Nordeste 32 Nordeste 0 1004.1 -- 63
2020-08-30 16:00:00 27 22 Nordeste 32 Nordeste 0 1003.7 -- 67
2020-08-30 15:00:00 27.7 18 Este 26 Este 0 1004.2 -- 64
2020-08-30 14:00:00 27.1 13 Nordeste 24 Este 0 1004 -- 66
2020-08-30 13:00:00 26.6 13 Este 23 Este 0 1004.3 -- 64
2020-08-30 12:00:00 25.9 11 Nordeste 21 Nordeste 0 1004.2 -- 64
2020-08-30 11:00:00 25.9 15 Nordeste 23 Nordeste 0 1004.3 -- 50
2020-08-30 10:00:00 25.1 5 Norte 12 Norte 0 1003.8 -- 46
2020-08-30 09:00:00 23.2 5 Sudoeste 10 Noroeste 0 1003.8 -- 35
2020-08-30 08:00:00 20.9 4 Noroeste 12 Oeste 0 1003.5 -- 38
2020-08-30 07:00:00 22.7 9 Oeste 19 Norte 0 1003 -- 34
2020-08-30 06:00:00 24.5 12 Sudoeste 18 Oeste 0 1002.5 -- 29
2020-08-30 05:00:00 24.6 11 Oeste 23 Oeste 0 1002.3 -- 29
2020-08-30 04:00:00 24.6 14 Oeste 28 Oeste 0 1002.7 -- 31
2020-08-30 03:00:00 25 18 Oeste 33 Oeste 0 1002.4 -- 30
2020-08-30 02:00:00 25.1 13 Oeste 23 Oeste 0 1002.9 -- 29
2020-08-30 01:00:00 25.1 13 Oeste 41 Oeste 0 1002.2 -- 31
2020-08-30 00:00:00 25 13 Oeste 41 Oeste 0 1001.6 -- 32
2020-08-29 23:00:00 25.2 21 Oeste 43 Oeste 0 1001.5 -- 32
2020-08-29 22:00:00 25.1 18 Oeste 48 Oeste 0 1000.8 -- 36
2020-08-29 21:00:00 24.6 25 Oeste 49 Oeste 0 999.5 -- 43
2020-08-29 20:00:00 25 32 Oeste 59 Oeste 0 998.8 -- 49
2020-08-29 19:00:00 26.2 30 Oeste 56 Oeste 0 998.8 -- 45
2020-08-29 18:00:00 27.3 24 Oeste 58 Oeste 0 999 -- 37
2020-08-29 17:00:00 26.7 23 Oeste 57 Oeste 0 998.9 -- 50
2020-08-29 16:00:00 27.5 17 Oeste 47 Oeste 0 999.1 -- 54
2020-08-29 15:00:00 26.7 14 Oeste 38 Oeste 0 999.7 -- 59
2020-08-29 14:00:00 26.5 12 Oeste 36 Oeste 0 999.9 -- 61
2020-08-29 13:00:00 26.7 12 Oeste 32 Oeste 0 1000.2 -- 62
2020-08-29 12:00:00 26.7 10 Oeste 28 Noroeste 0 1000.5 -- 63
2020-08-29 11:00:00 26.1 10 Oeste 28 Oeste 0 1000.4 -- 65
2020-08-29 10:00:00 26 14 Oeste 39 Oeste 0 1000.5 -- 64
2020-08-29 09:00:00 24.7 23 Oeste 37 Sudoeste 0 1000.1 -- 66
2020-08-29 08:00:00 24.2 19 Oeste 38 Oeste 0 1000.1 -- 67
2020-08-29 07:00:00 24.8 18 Oeste 32 Oeste 0 1000 -- 67
2020-08-29 06:00:00 26.3 14 Oeste 38 Oeste 0 999.7 -- 52
2020-08-29 05:00:00 26.6 16 Oeste 35 Oeste 0 999.7 -- 56
2020-08-29 04:00:00 27.1 17 Oeste 42 Oeste 0 999.6 -- 54
2020-08-29 03:00:00 27.4 17 Oeste 40 Sudoeste 0 999.9 -- 52
2020-08-29 02:00:00 27.7 13 Oeste 36 Oeste 0 1000.3 -- 52
2020-08-29 01:00:00 27.8 15 Oeste 44 Oeste 0 1000.7 -- 51
2020-08-29 00:00:00 27.9 22 Oeste 42 Oeste 0 1001 -- 49
2020-08-28 23:00:00 28.1 12 Oeste 42 Oeste 0 1001.1 -- 47
2020-08-28 22:00:00 28.6 19 Oeste 44 Oeste 0 1000.7 -- 43
2020-08-28 21:00:00 29.3 20 Oeste 40 Noroeste 0 1000.3 -- 43
2020-08-28 20:00:00 29.9 19 Oeste 46 Oeste 0 1000.5 -- 43
2020-08-28 19:00:00 30.3 23 Oeste 51 Oeste 0 1000.6 -- 48
2020-08-28 18:00:00 31.6 21 Oeste 48 Oeste 0 1001 -- 41
2020-08-28 17:00:00 31.6 22 Oeste 47 Oeste 0 1001.3 -- 40
2020-08-28 16:00:00 31.3 25 Oeste 45 Oeste 0 1001.9 -- 47
2020-08-28 15:00:00 31.7 20 Oeste 40 Oeste 0 1002.7 -- 43
2020-08-28 14:00:00 33.2 11 Oeste 30 Oeste 0 1003.3 -- 36
2020-08-28 13:00:00 33.5 12 Oeste 37 Oeste 0 1003.7 -- 31
2020-08-28 12:00:00 34.6 14 Oeste 32 Oeste 0 1004 -- 26
2020-08-28 11:00:00 33.4 15 Oeste 31 Oeste 0 1004 -- 28
2020-08-28 10:00:00 29 5 Sudeste 9 Sudeste 0 1004 -- 63
2020-08-28 09:00:00 25.4 3 Nordeste 10 Noroeste 0 1004.1 -- 70
2020-08-28 08:00:00 23.8 4 Noroeste 7 Noroeste 0 1004.2 -- 91
2020-08-28 07:00:00 24.1 5 Este 13 Este 0 1004.2 -- 87
2020-08-28 06:00:00 24.3 3 Este 10 Nordeste 0 1004.5 -- 76
2020-08-28 05:00:00 24.6 6 Nordeste 12 Este 0 1004.6 -- 88
2020-08-28 04:00:00 25.7 5 Sudoeste 12 Oeste 0 1005 -- 74
2020-08-28 03:00:00 25 3 Este 10 Noroeste 0 1005.7 -- 90
2020-08-28 02:00:00 25.1 5 Noroeste 11 Noroeste 0 1006.3 -- 88
2020-08-28 01:00:00 26.2 4 Noroeste 6 Noroeste 0 1007.1 -- 88
2020-08-28 00:00:00 25.9 3 Sudeste 7 Este 0 1007.2 -- 87
2020-08-27 23:00:00 26 6 Este 10 Este 0 1007.3 -- 88
2020-08-27 22:00:00 26.3 6 Este 11 Este 0 1007.1 -- 89
2020-08-27 21:00:00 26.8 5 Este 10 Este 0 1007.1 -- 85
2020-08-27 20:00:00 27.1 7 Este 15 Este 0 1007.6 -- 83
2020-08-27 19:00:00 28.2 12 Este 20 Norte 0 1008 -- 78
2020-08-27 18:00:00 29 13 Nordeste 20 Nordeste 0 1008.3 -- 74
2020-08-27 17:00:00 29.5 12 Norte 20 Nordeste 0 1008.5 -- 71
2020-08-27 16:00:00 29.2 11 Nordeste 19 Nordeste 0 1009 -- 72
2020-08-27 15:00:00 29.2 10 Nordeste 18 Este 0 1009.6 -- 71
2020-08-27 14:00:00 28.7 10 Este 18 Este 0 1010.2 -- 74
2020-08-27 13:00:00 28.5 10 Este 17 Nordeste 0 1010.8 -- 73
2020-08-27 12:00:00 27.6 13 Nordeste 18 Nordeste 0 1011.2 -- 77
2020-08-27 11:00:00 27 10 Este 14 Este 0 1011.3 -- 80
2020-08-27 10:00:00 27 6 Este 10 Este 0 1011.1 -- 79
2020-08-27 09:00:00 24.8 4 Sudeste 8 Sur 0 1011.1 -- 89
2020-08-27 08:00:00 23.9 2 Sudeste 6 Sur 0 1010.8 -- 89
2020-08-27 07:00:00 23.3 0 Calma 5 Sudoeste 0 1010.7 -- 87
2020-08-27 06:00:00 23.2 0 Calma 8 Sudoeste 0 1010.6 -- 88
2020-08-27 05:00:00 23.4 5 Sudoeste 7 Sudoeste 0 1010.9 -- 87
2020-08-27 04:00:00 23.7 3 Norte 5 Nordeste 0 1011.3 -- 88
2020-08-27 03:00:00 24.3 3 Noroeste 5 Oeste 0 1011.7 -- 88
2020-08-27 02:00:00 24.4 4 Oeste 8 Oeste 0 1011.9 -- 85
2020-08-27 01:00:00 25 3 Sudeste 8 Sudeste 0 1012.3 -- 87
2020-08-27 00:00:00 25.4 5 Sudeste 10 Sudeste 0 1012.4 -- 86
2020-08-26 23:00:00 25.5 8 Este 10 Este 0 1012.3 -- 85
2020-08-26 22:00:00 25.4 8 Este 11 Este 0 1011.7 -- 84
2020-08-26 21:00:00 25.8 8 Este 13 Este 0 1011.1 -- 82
2020-08-26 20:00:00 26.6 8 Este 16 Nordeste 0 1010.6 -- 77
2020-08-26 19:00:00 27.7 10 Nordeste 19 Nordeste 0 1010.7 -- 74
2020-08-26 18:00:00 28.5 13 Nordeste 21 Nordeste 0 1010.8 -- 69
2020-08-26 17:00:00 29.1 15 Nordeste 22 Norte 0 1011 -- 67
2020-08-26 16:00:00 29.2 17 Nordeste 23 Nordeste 0 1011.1 -- 67
2020-08-26 15:00:00 28.8 14 Norte 23 Nordeste 0 1011.3 -- 68
2020-08-26 14:00:00 28.1 13 Nordeste 21 Nordeste 0 1011.7 -- 72
2020-08-26 13:00:00 28.3 12 Nordeste 19 Nordeste 0 1012 -- 72
2020-08-26 12:00:00 28.1 10 Nordeste 17 Este 0 1012.2 -- 71
2020-08-26 11:00:00 27.7 10 Este 17 Nordeste 0 1011.8 -- 72
2020-08-26 10:00:00 27.5 10 Este 15 Este 0 1011.4 -- 73
2020-08-26 09:00:00 26.9 8 Este 11 Sudeste 0 1010.9 -- 75
2020-08-26 08:00:00 25.6 4 Nordeste 9 Nordeste 0 1010.7 -- 79
2020-08-26 07:00:00 25.7 4 Este 9 Este 0 1010.5 -- 80
2020-08-26 06:00:00 25.6 6 Este 10 Este 0 1010.2 -- 82
2020-08-26 05:00:00 25.8 4 Este 11 Nordeste 0 1010.1 -- 82
2020-08-26 04:00:00 25.7 4 Sudeste 12 Este 0 1010.1 -- 83
2020-08-26 03:00:00 25.6 9 Este 13 Este 0 1010.2 -- 83
2020-08-26 02:00:00 25.7 6 Este 12 Este 0 1010.9 -- 83
2020-08-26 01:00:00 25.7 6 Sudeste 14 Este 0 1010.8 -- 84
2020-08-26 00:00:00 25.7 5 Este 10 Este 0 1010.5 -- 85
2020-08-25 23:00:00 25.8 5 Este 7 Este 0 1010 -- 84
2020-08-25 22:00:00 26.1 5 Este 8 Este 0 1009.3 -- 84
2020-08-25 21:00:00 26.3 5 Este 12 Este 0 1008.7 -- 81
2020-08-25 20:00:00 27 9 Este 16 Nordeste 0 1008.2 -- 78
2020-08-25 19:00:00 27.9 11 Nordeste 18 Este 0 1008.2 -- 74
2020-08-25 18:00:00 28.5 12 Nordeste 19 Nordeste 0 1008.3 -- 72
2020-08-25 17:00:00 28.8 14 Nordeste 26 Nordeste 0 1008.3 -- 70
2020-08-25 16:00:00 28.9 15 Nordeste 23 Este 0 1008.5 -- 69
2020-08-25 15:00:00 29.1 14 Este 22 Este 0 1009 -- 66
2020-08-25 14:00:00 29.1 11 Este 20 Este 0 1009.3 -- 69
2020-08-25 13:00:00 28.3 13 Nordeste 21 Nordeste 0 1009.4 -- 70
2020-08-25 12:00:00 27.6 13 Este 18 Nordeste 0 1009.5 -- 73
2020-08-25 11:00:00 26.7 12 Nordeste 17 Este 0 1009.4 -- 78
2020-08-25 10:00:00 26.3 10 Este 17 Este 0 1009 -- 78
2020-08-25 09:00:00 26.1 12 Este 16 Este 0 1008.7 -- 79
2020-08-25 08:00:00 25.3 8 Este 15 Este 0 1008.2 -- 86
2020-08-25 07:00:00 25.5 9 Este 15 Este 0 1008 -- 85
2020-08-25 06:00:00 25 8 Este 13 Este 0 1008.1 -- 87
2020-08-25 05:00:00 25.2 9 Este 12 Este 0 1008.4 -- 88
2020-08-25 04:00:00 25.3 5 Este 12 Este 0 1008.6 -- 87
2020-08-25 03:00:00 25.6 7 Este 10 Este 0 1008.8 -- 86
2020-08-25 02:00:00 25.4 5 Sudeste 12 Este 0 1009.1 -- 86
2020-08-25 01:00:00 25.7 9 Este 14 Este 0 1008.9 -- 85
2020-08-25 00:00:00 25.9 10 Este 17 Este 0 1009.2 -- 85
2020-08-24 23:00:00 26.2 9 Este 15 Sudeste 0 1009.2 -- 84
2020-08-24 22:00:00 26.3 10 Este 17 Este 0 1008.5 -- 82
2020-08-24 21:00:00 26.6 14 Este 18 Este 0 1007.8 -- 81
2020-08-24 20:00:00 26.9 13 Este 18 Este 0 1007.6 -- 79
2020-08-24 19:00:00 27.5 10 Nordeste 19 Este 0 1007.5 -- 76
2020-08-24 18:00:00 28.1 11 Este 22 Este 0 1007.9 -- 74
2020-08-24 17:00:00 28.7 13 Este 24 Este 0 1008 -- 71
2020-08-24 16:00:00 28.8 14 Este 25 Este 0 1008.4 -- 72
2020-08-24 15:00:00 28.8 13 Este 22 Este 0 1009.1 -- 70
2020-08-24 14:00:00 28.5 13 Nordeste 24 Nordeste 0 1009.2 -- 74
2020-08-24 13:00:00 28.7 13 Este 19 Este 0 1009.8 -- 72
2020-08-24 12:00:00 27.7 12 Este 19 Este 0 1009.9 -- 75
2020-08-24 11:00:00 27.4 8 Este 13 Este 0 1009.9 -- 72
2020-08-24 10:00:00 27.5 7 Sudeste 12 Este 0 1009.7 -- 73
2020-08-24 09:00:00 25.9 4 Sudeste 10 Sudeste 0 1009.5 -- 82
2020-08-24 08:00:00 24.9 5 Sudeste 9 Sudeste 0 1009.2 -- 88
2020-08-24 07:00:00 24.5 4 Sudeste 6 Sudoeste 0 1008.8 -- 87
2020-08-24 06:00:00 24.2 5 Sudoeste 6 Sudoeste 0 1008.9 -- 85
2020-08-24 05:00:00 24.7 3 Sur 7 Este 0 1008.8 -- 86
2020-08-24 04:00:00 24.9 5 Este 8 Sudeste 0 1009.2 -- 86
2020-08-24 03:00:00 25.1 5 Este 8 Sudeste 0 1009.4 -- 85
2020-08-24 02:00:00 25.3 7 Este 9 Este 0 1009.5 -- 85
2020-08-24 01:00:00 25.4 3 Este 9 Este 0 1010 -- 85
2020-08-24 00:00:00 25.4 6 Este 10 Nordeste 0 1009.9 -- 85
2020-08-23 23:00:00 25.8 8 Este 13 Este 0 1010.1 -- 84
2020-08-23 22:00:00 26 8 Este 12 Este 0 1009.8 -- 82
2020-08-23 21:00:00 26.3 8 Este 13 Nordeste 0 1009.3 -- 82
2020-08-23 20:00:00 26.9 8 Este 15 Este 0 1009.2 -- 77
2020-08-23 19:00:00 28 10 Este 16 Este 0 1009.4 -- 72
2020-08-23 18:00:00 28.6 10 Este 21 Este 0 1009.6 -- 71
2020-08-23 17:00:00 28.7 11 Este 23 Este 0 1009.9 -- 66
2020-08-23 16:00:00 28.9 10 Nordeste 23 Este 0 1010.7 -- 62
2020-08-23 15:00:00 28.3 12 Nordeste 23 Nordeste 0 1011.1 -- 72
2020-08-23 14:00:00 29.2 14 Este 24 Este 0 1011.3 -- 72
2020-08-23 13:00:00 29.5 13 Nordeste 21 Nordeste 0 1011.8 -- 68
2020-08-23 12:00:00 29.3 10 Este 16 Este 0 1011.9 -- 67
2020-08-23 11:00:00 29 12 Este 16 Este 0 1011.9 -- 66
2020-08-23 10:00:00 29.4 8 Este 15 Norte 0 1011.6 -- 63
2020-08-23 09:00:00 26.7 8 Norte 12 Norte 0 1011.7 -- 49
2020-08-23 08:00:00 25.5 8 Noroeste 13 Noroeste 0 1011.2 -- 50
2020-08-23 07:00:00 25.4 4 Oeste 13 Noroeste 0 1010.9 -- 53
2020-08-23 06:00:00 25.9 5 Norte 12 Sudeste 0 1010.8 -- 50
2020-08-23 05:00:00 25.8 7 Noroeste 13 Norte 0 1010.6 -- 48
2020-08-23 04:00:00 25 4 Oeste 10 Noroeste 0 1011 -- 58
2020-08-23 03:00:00 25.2 4 Oeste 9 Noroeste 0 1011.8 -- 71
2020-08-23 02:00:00 25.7 3 Sur 5 Sudoeste 0 1012.2 -- 70
2020-08-23 01:00:00 26.2 5 Este 7 Sudeste 0 1011.8 -- 73
2020-08-23 00:00:00 26.8 4 Este 9 Nordeste 0 1011.9 -- 69
2020-08-22 23:00:00 27.3 5 Sudeste 16 Este 0 1012 -- 65
2020-08-22 22:00:00 27.9 7 Sudeste 12 Sudeste 0 1011.6 -- 64
2020-08-22 21:00:00 29 9 Sudeste 16 Sudeste 0 1010.8 -- 60
2020-08-22 20:00:00 31.6 12 Sudeste 21 Sudeste 0 1010.5 -- 55
2020-08-22 19:00:00 34.8 7 Oeste 21 Oeste 0 1010.3 -- 27
2020-08-22 18:00:00 35.7 9 Oeste 22 Oeste 0 1010.7 -- 24
2020-08-22 17:00:00 36.2 7 Noroeste 23 Oeste 0 1011.1 -- 22
2020-08-22 16:00:00 36.4 10 Oeste 23 Oeste 0 1011.6 -- 20
2020-08-22 15:00:00 35.8 10 Oeste 33 Oeste 0 1012 -- 22
2020-08-22 14:00:00 35.2 9 Oeste 30 Oeste 0 1012.3 -- 29
2020-08-22 13:00:00 33.6 12 Oeste 26 Oeste 0 1012.6 -- 34
2020-08-22 12:00:00 33.7 9 Oeste 30 Oeste 0 1012.8 -- 35
2020-08-22 11:00:00 32 12 Oeste 28 Sudoeste 0 1012.4 -- 38
2020-08-22 10:00:00 29.6 14 Oeste 26 Sudoeste 0 1011.9 -- 44
2020-08-22 09:00:00 28.2 14 Oeste 23 Oeste 0 1011.6 -- 43
2020-08-22 08:00:00 27.4 8 Oeste 18 Oeste 0 1011 -- 31
2020-08-22 07:00:00 25.2 6 Noroeste 10 Noroeste 0 1010.6 -- 39
2020-08-22 06:00:00 25.6 5 Oeste 8 Noroeste 0 1010.2 -- 44
2020-08-22 05:00:00 26.2 3 Nordeste 11 Noroeste 0 1010 -- 40
2020-08-22 04:00:00 27.1 7 Noroeste 12 Noroeste 0 1010 -- 36
2020-08-22 03:00:00 26.5 4 Noroeste 9 Noroeste 0 1010.6 -- 45
2020-08-22 02:00:00 26.4 4 Este 8 Sur 0 1010.9 -- 48
2020-08-22 01:00:00 26.9 4 Este 12 Noroeste 0 1010.4 -- 58
2020-08-22 00:00:00 26.6 3 Noroeste 8 Noroeste 0 1010.4 -- 65
2020-08-21 23:00:00 26.7 3 Sudeste 10 Sudeste 0 1010.2 -- 67
2020-08-21 22:00:00 27.2 8 Sudeste 14 Sudeste 0 1009.6 -- 66
2020-08-21 21:00:00 29.8 5 Sudeste 17 Oeste 0 1008.9 -- 58
2020-08-21 20:00:00 30.8 6 Oeste 16 Oeste 0 1008.2 -- 24
2020-08-21 19:00:00 29.1 7 Este 14 Nordeste 0 1008.3 -- 59
2020-08-21 18:00:00 28.7 8 Este 16 Este 0 1008.2 -- 59
2020-08-21 17:00:00 29.5 9 Este 19 Este 0 1008.2 -- 55
2020-08-21 16:00:00 29.6 13 Nordeste 22 Nordeste 0 1008.5 -- 49
2020-08-21 15:00:00 31.5 14 Este 19 Este 0 1008.9 -- 40
2020-08-21 14:00:00 31.1 11 Este 17 Este 0 1008.9 -- 43
2020-08-21 13:00:00 30.7 10 Este 17 Este 0 1008.9 -- 39
2020-08-21 12:00:00 29.9 10 Este 17 Este 0 1008.6 -- 46
2020-08-21 11:00:00 30.1 8 Este 14 Este 0 1008.2 -- 50
2020-08-21 10:00:00 28.3 3 Nordeste 7 Nordeste 0 1008 -- 47
2020-08-21 09:00:00 25.7 4 Norte 9 Sudeste 0 1007.6 -- 51
2020-08-21 08:00:00 24.3 6 Noroeste 12 Noroeste 0 1007 -- 49
2020-08-21 07:00:00 24 6 Noroeste 11 Noroeste 0 1006.6 -- 68
2020-08-21 06:00:00 24.6 6 Norte 10 Noroeste 0 1006.2 -- 71
2020-08-21 05:00:00 25.2 3 Oeste 19 Sudoeste 0 1006.3 -- 56
2020-08-21 04:00:00 24.7 10 Oeste 28 Oeste 0 1006.1 -- 63
2020-08-21 03:00:00 24.1 12 Oeste 27 Oeste 0 1005.7 -- 82
2020-08-21 02:00:00 25.1 12 Oeste 26 Oeste 0 1005.7 -- 69
2020-08-21 01:00:00 25.6 5 Noroeste 12 Noroeste 0 1005.4 -- 75
2020-08-21 00:00:00 25.7 7 Noroeste 16 Noroeste 0 1004.8 -- 76